Airfield :
LOGIN :

Register | Disclaimer

   EN    FR    IT 

 










Legend :    VFR   Marginal VFR   IFR   Intensive IFR   Very Intensive IFR
Visi :
Ceiling :
>= 8 km
>= 3000ft
5 to 8 km
1000 to 3000 ft
1500m to 5 km
500 to 1000 ft
800 to 1500m
200 to 500 ft
< 800m
< 200 ft
Symbols :   Thunderstorms  Fog  Heavy snow  Heavy precipitations  Wind > 20 kt
SIGMETs :     Misc.  Thunderstorms  Icing  Turbulence  Mountain Waves  Volcanic Ashes






- Airport Elevation : 83 ft
- IATA code : LHR


EGLL - London Heathrow

CURRENT METAR :
  • 022050Z AUTO 36002KT 9999 NCD 20/03 Q1014

EXPIRED METARs :
  • 022020Z AUTO 35002KT 9999 NCD 21/03 Q1014
  • 021950Z AUTO VRB02KT 9999 NCD 22/02 Q1015 NOSIG
  • 021920Z AUTO 32006KT 290V020 9999 NCD 22/02 Q1015 NOSIG
  • 021850Z AUTO 34005KT 290V030 9999 NCD 23/02 Q1015 NOSIG
  • 021820Z AUTO 34005KT 290V050 9999 NCD 24/03 Q1015 NOSIG

TAF TAF EGLL
Valid from the 02 at 18:00 until the 04 at 00:00 UTC


021659Z 0218/0324 34005KT CAVOK
PROB40
TEMPO 0306/0321 8000 SHRA RA BKN014
BECMG 0312/0315 BKN030
TEMPO 0321/0324 BKN014
PROB30
TEMPO 0321/0324 8000 -RA



MET'MAP, your aeronautical weather chart ! - Copyright ORBIFLY December 2007 - Disclaimer

ORBIFLY MET'MAP TEAM :

Programming & Development : Alexandra Zaïnal
Concept & original design : Baudouin d'Aumeries
Assistance for programming : Marc-Olivier Méhu
Technical & hardware support : Manuel Goepfert

Contact : metmap@orbifly.com




SOURCES & CREDITS :

   NOAA